sensor_id;sensor_type;location;lat;lon;timestamp;P1;durP1;ratioP1;P2;durP2;ratioP2
7398;SDS011;3740;50.700;7.184;2024-02-26T00:02:16;1.57;;;1.47;;
7398;SDS011;3740;50.700;7.184;2024-02-26T00:04:43;2.73;;;2.30;;
7398;SDS011;3740;50.700;7.184;2024-02-26T00:07:08;1.83;;;1.70;;
7398;SDS011;3740;50.700;7.184;2024-02-26T00:09:34;2.43;;;2.23;;
7398;SDS011;3740;50.700;7.184;2024-02-26T00:12:04;1.50;;;1.40;;
7398;SDS011;3740;50.700;7.184;2024-02-26T00:14:30;2.30;;;2.10;;
7398;SDS011;3740;50.700;7.184;2024-02-26T00:16:56;1.27;;;1.17;;
7398;SDS011;3740;50.700;7.184;2024-02-26T00:19:22;2.47;;;1.73;;
7398;SDS011;3740;50.700;7.184;2024-02-26T00:21:47;1.70;;;1.60;;
7398;SDS011;3740;50.700;7.184;2024-02-26T00:24:13;1.70;;;1.60;;
7398;SDS011;3740;50.700;7.184;2024-02-26T00:26:39;1.70;;;1.60;;
7398;SDS011;3740;50.700;7.184;2024-02-26T00:29:04;2.30;;;2.10;;
7398;SDS011;3740;50.700;7.184;2024-02-26T00:31:30;2.20;;;2.00;;
7398;SDS011;3740;50.700;7.184;2024-02-26T00:33:56;1.60;;;1.50;;
7398;SDS011;3740;50.700;7.184;2024-02-26T00:36:21;2.57;;;1.50;;
7398;SDS011;3740;50.700;7.184;2024-02-26T00:38:47;1.40;;;1.30;;
7398;SDS011;3740;50.700;7.184;2024-02-26T00:41:16;1.97;;;1.70;;
7398;SDS011;3740;50.700;7.184;2024-02-26T00:43:42;2.53;;;1.83;;
7398;SDS011;3740;50.700;7.184;2024-02-26T00:46:08;1.90;;;1.80;;
7398;SDS011;3740;50.700;7.184;2024-02-26T00:48:33;1.60;;;1.40;;
7398;SDS011;3740;50.700;7.184;2024-02-26T00:50:59;1.93;;;1.53;;
7398;SDS011;3740;50.700;7.184;2024-02-26T00:53:24;2.40;;;2.20;;
7398;SDS011;3740;50.700;7.184;2024-02-26T00:55:50;3.30;;;1.93;;
7398;SDS011;3740;50.700;7.184;2024-02-26T00:58:16;1.50;;;1.40;;
7398;SDS011;3740;50.700;7.184;2024-02-26T01:00:41;2.47;;;1.33;;
7398;SDS011;3740;50.700;7.184;2024-02-26T01:03:07;1.10;;;1.10;;
7398;SDS011;3740;50.700;7.184;2024-02-26T01:05:33;1.40;;;1.30;;
7398;SDS011;3740;50.700;7.184;2024-02-26T01:07:58;2.07;;;1.40;;
7398;SDS011;3740;50.700;7.184;2024-02-26T01:10:24;1.33;;;1.23;;
7398;SDS011;3740;50.700;7.184;2024-02-26T01:12:49;2.17;;;1.97;;
7398;SDS011;3740;50.700;7.184;2024-02-26T01:15:15;2.00;;;1.90;;
7398;SDS011;3740;50.700;7.184;2024-02-26T01:17:41;1.77;;;1.67;;
7398;SDS011;3740;50.700;7.184;2024-02-26T01:20:06;1.20;;;1.20;;
7398;SDS011;3740;50.700;7.184;2024-02-26T01:22:33;1.47;;;1.23;;
7398;SDS011;3740;50.700;7.184;2024-02-26T01:24:59;1.20;;;1.10;;
7398;SDS011;3740;50.700;7.184;2024-02-26T01:27:25;1.40;;;1.30;;
7398;SDS011;3740;50.700;7.184;2024-02-26T01:29:52;1.30;;;1.20;;
7398;SDS011;3740;50.700;7.184;2024-02-26T01:32:17;1.40;;;1.30;;
7398;SDS011;3740;50.700;7.184;2024-02-26T01:34:44;1.53;;;1.33;;
7398;SDS011;3740;50.700;7.184;2024-02-26T01:37:10;1.60;;;1.20;;
7398;SDS011;3740;50.700;7.184;2024-02-26T01:39:36;1.63;;;1.23;;
7398;SDS011;3740;50.700;7.184;2024-02-26T01:42:01;1.60;;;1.37;;
7398;SDS011;3740;50.700;7.184;2024-02-26T01:44:27;1.17;;;1.17;;
7398;SDS011;3740;50.700;7.184;2024-02-26T01:46:53;1.83;;;1.00;;
7398;SDS011;3740;50.700;7.184;2024-02-26T01:49:19;1.60;;;1.50;;
7398;SDS011;3740;50.700;7.184;2024-02-26T01:51:45;3.20;;;1.53;;
7398;SDS011;3740;50.700;7.184;2024-02-26T01:54:11;1.47;;;1.37;;
7398;SDS011;3740;50.700;7.184;2024-02-26T01:56:37;2.37;;;2.00;;
7398;SDS011;3740;50.700;7.184;2024-02-26T01:59:05;1.27;;;1.17;;
7398;SDS011;3740;50.700;7.184;2024-02-26T02:01:31;1.37;;;1.30;;
7398;SDS011;3740;50.700;7.184;2024-02-26T02:03:59;1.70;;;1.50;;
7398;SDS011;3740;50.700;7.184;2024-02-26T02:06:25;1.97;;;1.87;;
7398;SDS011;3740;50.700;7.184;2024-02-26T02:08:54;1.27;;;1.17;;
7398;SDS011;3740;50.700;7.184;2024-02-26T02:11:19;2.00;;;1.90;;
7398;SDS011;3740;50.700;7.184;2024-02-26T02:13:45;1.77;;;1.63;;
7398;SDS011;3740;50.700;7.184;2024-02-26T02:16:11;1.90;;;1.63;;
7398;SDS011;3740;50.700;7.184;2024-02-26T02:18:37;2.33;;;2.13;;
7398;SDS011;3740;50.700;7.184;2024-02-26T02:21:02;1.27;;;1.17;;
7398;SDS011;3740;50.700;7.184;2024-02-26T02:23:28;1.50;;;1.40;;
7398;SDS011;3740;50.700;7.184;2024-02-26T02:25:54;1.50;;;1.40;;
7398;SDS011;3740;50.700;7.184;2024-02-26T02:28:22;1.50;;;1.40;;
7398;SDS011;3740;50.700;7.184;2024-02-26T02:30:50;1.10;;;1.10;;
7398;SDS011;3740;50.700;7.184;2024-02-26T02:33:16;1.87;;;1.20;;
7398;SDS011;3740;50.700;7.184;2024-02-26T02:35:42;1.97;;;1.30;;
7398;SDS011;3740;50.700;7.184;2024-02-26T02:38:07;1.77;;;1.40;;
7398;SDS011;3740;50.700;7.184;2024-02-26T02:40:33;0.93;;;0.93;;
7398;SDS011;3740;50.700;7.184;2024-02-26T02:42:58;2.07;;;1.50;;
7398;SDS011;3740;50.700;7.184;2024-02-26T02:45:25;1.07;;;1.07;;
7398;SDS011;3740;50.700;7.184;2024-02-26T02:47:51;1.70;;;1.27;;
7398;SDS011;3740;50.700;7.184;2024-02-26T02:50:16;1.10;;;1.00;;
7398;SDS011;3740;50.700;7.184;2024-02-26T02:52:42;1.40;;;1.30;;
7398;SDS011;3740;50.700;7.184;2024-02-26T02:55:07;1.37;;;1.27;;
7398;SDS011;3740;50.700;7.184;2024-02-26T02:57:33;2.00;;;1.57;;
7398;SDS011;3740;50.700;7.184;2024-02-26T02:59:59;1.70;;;1.20;;
7398;SDS011;3740;50.700;7.184;2024-02-26T03:02:24;1.40;;;1.30;;
7398;SDS011;3740;50.700;7.184;2024-02-26T03:04:50;1.10;;;1.00;;
7398;SDS011;3740;50.700;7.184;2024-02-26T03:07:16;1.30;;;1.03;;
7398;SDS011;3740;50.700;7.184;2024-02-26T03:09:41;0.87;;;0.87;;
7398;SDS011;3740;50.700;7.184;2024-02-26T03:12:07;1.10;;;1.00;;
7398;SDS011;3740;50.700;7.184;2024-02-26T03:14:32;1.33;;;1.20;;
7398;SDS011;3740;50.700;7.184;2024-02-26T03:16:58;1.20;;;1.10;;
7398;SDS011;3740;50.700;7.184;2024-02-26T03:19:24;1.10;;;1.10;;
7398;SDS011;3740;50.700;7.184;2024-02-26T03:21:49;0.80;;;0.80;;
7398;SDS011;3740;50.700;7.184;2024-02-26T03:24:15;1.00;;;0.90;;
7398;SDS011;3740;50.700;7.184;2024-02-26T03:26:40;1.40;;;1.10;;
7398;SDS011;3740;50.700;7.184;2024-02-26T03:29:06;1.70;;;1.33;;
7398;SDS011;3740;50.700;7.184;2024-02-26T03:31:31;1.10;;;1.10;;
7398;SDS011;3740;50.700;7.184;2024-02-26T03:33:57;1.47;;;1.37;;
7398;SDS011;3740;50.700;7.184;2024-02-26T03:36:22;1.93;;;1.30;;
7398;SDS011;3740;50.700;7.184;2024-02-26T03:38:48;1.50;;;1.40;;
7398;SDS011;3740;50.700;7.184;2024-02-26T03:41:14;1.10;;;1.03;;
7398;SDS011;3740;50.700;7.184;2024-02-26T03:43:39;2.27;;;1.03;;
7398;SDS011;3740;50.700;7.184;2024-02-26T03:46:08;2.07;;;1.30;;
7398;SDS011;3740;50.700;7.184;2024-02-26T03:48:36;1.80;;;0.93;;
7398;SDS011;3740;50.700;7.184;2024-02-26T03:51:01;1.13;;;1.13;;
7398;SDS011;3740;50.700;7.184;2024-02-26T03:53:27;1.93;;;1.17;;
7398;SDS011;3740;50.700;7.184;2024-02-26T03:55:53;1.20;;;1.10;;
7398;SDS011;3740;50.700;7.184;2024-02-26T03:58:20;1.10;;;1.00;;
7398;SDS011;3740;50.700;7.184;2024-02-26T04:00:46;0.97;;;0.90;;
7398;SDS011;3740;50.700;7.184;2024-02-26T04:03:15;1.20;;;1.10;;
7398;SDS011;3740;50.700;7.184;2024-02-26T04:05:40;1.13;;;1.03;;
7398;SDS011;3740;50.700;7.184;2024-02-26T04:08:06;1.40;;;1.30;;
7398;SDS011;3740;50.700;7.184;2024-02-26T04:10:32;2.33;;;1.37;;
7398;SDS011;3740;50.700;7.184;2024-02-26T04:13:00;1.00;;;1.00;;
7398;SDS011;3740;50.700;7.184;2024-02-26T04:15:25;2.63;;;1.53;;
7398;SDS011;3740;50.700;7.184;2024-02-26T04:17:51;0.93;;;0.93;;
7398;SDS011;3740;50.700;7.184;2024-02-26T04:20:17;1.20;;;1.10;;
7398;SDS011;3740;50.700;7.184;2024-02-26T04:22:42;2.07;;;1.23;;
7398;SDS011;3740;50.700;7.184;2024-02-26T04:25:08;1.40;;;1.27;;
7398;SDS011;3740;50.700;7.184;2024-02-26T04:27:34;1.40;;;1.30;;
7398;SDS011;3740;50.700;7.184;2024-02-26T04:29:59;1.73;;;1.40;;
7398;SDS011;3740;50.700;7.184;2024-02-26T04:32:25;1.50;;;1.40;;
7398;SDS011;3740;50.700;7.184;2024-02-26T04:34:50;1.60;;;1.50;;
7398;SDS011;3740;50.700;7.184;2024-02-26T04:37:16;1.87;;;1.63;;
7398;SDS011;3740;50.700;7.184;2024-02-26T04:39:42;1.90;;;1.80;;
7398;SDS011;3740;50.700;7.184;2024-02-26T04:42:07;2.10;;;1.67;;
7398;SDS011;3740;50.700;7.184;2024-02-26T04:44:33;2.00;;;1.50;;
7398;SDS011;3740;50.700;7.184;2024-02-26T04:46:58;2.57;;;1.43;;
7398;SDS011;3740;50.700;7.184;2024-02-26T04:49:26;2.20;;;1.87;;
7398;SDS011;3740;50.700;7.184;2024-02-26T04:51:52;3.50;;;1.80;;
7398;SDS011;3740;50.700;7.184;2024-02-26T04:54:18;1.40;;;1.30;;
7398;SDS011;3740;50.700;7.184;2024-02-26T04:56:44;1.87;;;1.70;;
7398;SDS011;3740;50.700;7.184;2024-02-26T04:59:10;1.30;;;1.20;;
7398;SDS011;3740;50.700;7.184;2024-02-26T05:01:35;2.77;;;2.00;;
7398;SDS011;3740;50.700;7.184;2024-02-26T05:04:01;2.10;;;1.80;;
7398;SDS011;3740;50.700;7.184;2024-02-26T05:06:28;2.33;;;2.00;;
7398;SDS011;3740;50.700;7.184;2024-02-26T05:08:54;2.77;;;1.90;;
7398;SDS011;3740;50.700;7.184;2024-02-26T05:11:19;1.87;;;1.77;;
7398;SDS011;3740;50.700;7.184;2024-02-26T05:13:45;1.93;;;1.80;;
7398;SDS011;3740;50.700;7.184;2024-02-26T05:16:11;1.90;;;1.80;;
7398;SDS011;3740;50.700;7.184;2024-02-26T05:18:36;2.90;;;2.40;;
7398;SDS011;3740;50.700;7.184;2024-02-26T05:21:02;1.83;;;1.73;;
7398;SDS011;3740;50.700;7.184;2024-02-26T05:23:28;4.30;;;2.27;;
7398;SDS011;3740;50.700;7.184;2024-02-26T05:25:54;2.20;;;2.07;;
7398;SDS011;3740;50.700;7.184;2024-02-26T05:28:19;2.30;;;2.10;;
7398;SDS011;3740;50.700;7.184;2024-02-26T05:30:45;2.47;;;1.90;;
7398;SDS011;3740;50.700;7.184;2024-02-26T05:33:11;2.33;;;2.13;;
7398;SDS011;3740;50.700;7.184;2024-02-26T05:35:37;2.97;;;2.50;;
7398;SDS011;3740;50.700;7.184;2024-02-26T05:38:03;2.67;;;2.23;;
7398;SDS011;3740;50.700;7.184;2024-02-26T05:40:29;3.00;;;2.10;;
7398;SDS011;3740;50.700;7.184;2024-02-26T05:42:55;2.40;;;2.20;;
7398;SDS011;3740;50.700;7.184;2024-02-26T05:45:20;2.50;;;2.30;;
7398;SDS011;3740;50.700;7.184;2024-02-26T05:47:46;2.00;;;1.90;;
7398;SDS011;3740;50.700;7.184;2024-02-26T05:50:12;4.40;;;3.30;;
7398;SDS011;3740;50.700;7.184;2024-02-26T05:52:38;2.70;;;2.50;;
7398;SDS011;3740;50.700;7.184;2024-02-26T05:55:05;2.80;;;2.23;;
7398;SDS011;3740;50.700;7.184;2024-02-26T05:57:31;2.17;;;2.00;;
7398;SDS011;3740;50.700;7.184;2024-02-26T05:59:57;2.13;;;1.90;;
7398;SDS011;3740;50.700;7.184;2024-02-26T06:02:25;2.63;;;2.43;;
7398;SDS011;3740;50.700;7.184;2024-02-26T06:04:51;2.50;;;2.30;;
7398;SDS011;3740;50.700;7.184;2024-02-26T06:07:17;2.63;;;2.43;;
7398;SDS011;3740;50.700;7.184;2024-02-26T06:09:42;2.80;;;2.40;;
7398;SDS011;3740;50.700;7.184;2024-02-26T06:12:08;2.73;;;2.53;;
7398;SDS011;3740;50.700;7.184;2024-02-26T06:14:33;2.63;;;2.43;;
7398;SDS011;3740;50.700;7.184;2024-02-26T06:16:59;2.63;;;2.43;;
7398;SDS011;3740;50.700;7.184;2024-02-26T06:19:24;2.60;;;2.40;;
7398;SDS011;3740;50.700;7.184;2024-02-26T06:21:50;2.67;;;2.47;;
7398;SDS011;3740;50.700;7.184;2024-02-26T06:24:16;2.80;;;2.60;;
7398;SDS011;3740;50.700;7.184;2024-02-26T06:26:41;3.23;;;2.70;;
7398;SDS011;3740;50.700;7.184;2024-02-26T06:29:07;3.07;;;2.60;;
7398;SDS011;3740;50.700;7.184;2024-02-26T06:31:32;3.00;;;2.70;;
7398;SDS011;3740;50.700;7.184;2024-02-26T06:33:58;3.23;;;2.70;;
7398;SDS011;3740;50.700;7.184;2024-02-26T06:36:23;2.67;;;2.47;;
7398;SDS011;3740;50.700;7.184;2024-02-26T06:38:49;2.93;;;2.63;;
7398;SDS011;3740;50.700;7.184;2024-02-26T06:41:14;3.03;;;2.50;;
7398;SDS011;3740;50.700;7.184;2024-02-26T06:43:40;4.00;;;2.30;;
7398;SDS011;3740;50.700;7.184;2024-02-26T06:46:06;2.80;;;2.60;;
7398;SDS011;3740;50.700;7.184;2024-02-26T06:48:32;3.10;;;2.60;;
7398;SDS011;3740;50.700;7.184;2024-02-26T06:50:57;5.90;;;3.73;;
7398;SDS011;3740;50.700;7.184;2024-02-26T06:53:23;2.90;;;2.60;;
7398;SDS011;3740;50.700;7.184;2024-02-26T06:55:48;2.80;;;2.53;;
7398;SDS011;3740;50.700;7.184;2024-02-26T06:58:15;2.80;;;2.37;;
7398;SDS011;3740;50.700;7.184;2024-02-26T07:00:41;2.87;;;2.47;;
7398;SDS011;3740;50.700;7.184;2024-02-26T07:03:06;3.10;;;2.80;;
7398;SDS011;3740;50.700;7.184;2024-02-26T07:05:32;4.20;;;3.53;;
7398;SDS011;3740;50.700;7.184;2024-02-26T07:07:57;3.27;;;2.97;;
7398;SDS011;3740;50.700;7.184;2024-02-26T07:10:23;3.17;;;2.90;;
7398;SDS011;3740;50.700;7.184;2024-02-26T07:12:48;4.70;;;4.20;;
7398;SDS011;3740;50.700;7.184;2024-02-26T07:15:14;4.13;;;3.73;;
7398;SDS011;3740;50.700;7.184;2024-02-26T07:17:39;3.70;;;3.30;;
7398;SDS011;3740;50.700;7.184;2024-02-26T07:20:07;4.47;;;3.27;;
7398;SDS011;3740;50.700;7.184;2024-02-26T07:22:33;6.17;;;5.40;;
7398;SDS011;3740;50.700;7.184;2024-02-26T07:24:59;4.40;;;4.00;;
7398;SDS011;3740;50.700;7.184;2024-02-26T07:27:24;7.87;;;6.53;;
7398;SDS011;3740;50.700;7.184;2024-02-26T07:29:50;4.20;;;3.80;;
7398;SDS011;3740;50.700;7.184;2024-02-26T07:32:16;3.43;;;3.13;;
7398;SDS011;3740;50.700;7.184;2024-02-26T07:34:41;2.93;;;2.70;;
7398;SDS011;3740;50.700;7.184;2024-02-26T07:37:09;3.23;;;3.00;;
7398;SDS011;3740;50.700;7.184;2024-02-26T07:39:35;3.13;;;2.87;;
7398;SDS011;3740;50.700;7.184;2024-02-26T07:42:01;3.03;;;2.83;;
7398;SDS011;3740;50.700;7.184;2024-02-26T07:44:27;4.90;;;2.60;;
7398;SDS011;3740;50.700;7.184;2024-02-26T07:46:53;4.03;;;2.93;;
7398;SDS011;3740;50.700;7.184;2024-02-26T07:49:18;5.30;;;3.17;;
7398;SDS011;3740;50.700;7.184;2024-02-26T07:51:44;3.23;;;2.87;;
7398;SDS011;3740;50.700;7.184;2024-02-26T07:54:09;3.47;;;2.87;;
7398;SDS011;3740;50.700;7.184;2024-02-26T07:56:35;2.80;;;2.60;;
7398;SDS011;3740;50.700;7.184;2024-02-26T07:59:00;3.77;;;3.20;;
7398;SDS011;3740;50.700;7.184;2024-02-26T08:01:26;3.40;;;3.00;;
7398;SDS011;3740;50.700;7.184;2024-02-26T08:03:55;2.60;;;2.40;;
7398;SDS011;3740;50.700;7.184;2024-02-26T08:06:20;3.03;;;2.83;;
7398;SDS011;3740;50.700;7.184;2024-02-26T08:08:46;3.00;;;2.80;;
7398;SDS011;3740;50.700;7.184;2024-02-26T08:11:14;3.27;;;3.00;;
7398;SDS011;3740;50.700;7.184;2024-02-26T08:13:40;3.33;;;3.00;;
7398;SDS011;3740;50.700;7.184;2024-02-26T08:16:06;3.20;;;2.90;;
7398;SDS011;3740;50.700;7.184;2024-02-26T08:18:31;4.23;;;3.00;;
7398;SDS011;3740;50.700;7.184;2024-02-26T08:20:57;2.70;;;2.50;;
7398;SDS011;3740;50.700;7.184;2024-02-26T08:23:22;3.27;;;2.97;;
7398;SDS011;3740;50.700;7.184;2024-02-26T08:25:48;3.53;;;3.00;;
7398;SDS011;3740;50.700;7.184;2024-02-26T08:28:14;3.50;;;3.20;;
7398;SDS011;3740;50.700;7.184;2024-02-26T08:30:42;3.30;;;2.87;;
7398;SDS011;3740;50.700;7.184;2024-02-26T08:33:08;3.10;;;2.80;;
7398;SDS011;3740;50.700;7.184;2024-02-26T08:35:34;2.70;;;2.53;;
7398;SDS011;3740;50.700;7.184;2024-02-26T08:38:00;3.40;;;3.10;;
7398;SDS011;3740;50.700;7.184;2024-02-26T08:40:26;4.80;;;3.13;;
7398;SDS011;3740;50.700;7.184;2024-02-26T08:42:51;5.33;;;3.00;;
7398;SDS011;3740;50.700;7.184;2024-02-26T08:45:17;3.90;;;3.00;;
7398;SDS011;3740;50.700;7.184;2024-02-26T08:47:44;2.93;;;2.73;;
7398;SDS011;3740;50.700;7.184;2024-02-26T08:50:10;3.57;;;3.00;;
7398;SDS011;3740;50.700;7.184;2024-02-26T08:52:37;3.20;;;2.90;;
7398;SDS011;3740;50.700;7.184;2024-02-26T08:55:03;3.30;;;2.80;;
7398;SDS011;3740;50.700;7.184;2024-02-26T08:57:29;3.40;;;3.10;;
7398;SDS011;3740;50.700;7.184;2024-02-26T08:59:58;3.20;;;3.00;;
7398;SDS011;3740;50.700;7.184;2024-02-26T09:02:23;3.33;;;2.83;;
7398;SDS011;3740;50.700;7.184;2024-02-26T09:04:49;3.63;;;3.30;;
7398;SDS011;3740;50.700;7.184;2024-02-26T09:07:18;3.60;;;3.30;;
7398;SDS011;3740;50.700;7.184;2024-02-26T09:09:44;4.30;;;3.53;;
7398;SDS011;3740;50.700;7.184;2024-02-26T09:12:09;3.50;;;3.20;;
7398;SDS011;3740;50.700;7.184;2024-02-26T09:14:35;3.70;;;3.30;;
7398;SDS011;3740;50.700;7.184;2024-02-26T09:17:00;3.43;;;3.00;;
7398;SDS011;3740;50.700;7.184;2024-02-26T09:19:26;4.40;;;3.00;;
7398;SDS011;3740;50.700;7.184;2024-02-26T09:21:52;4.20;;;3.30;;
7398;SDS011;3740;50.700;7.184;2024-02-26T09:24:22;3.67;;;3.10;;
7398;SDS011;3740;50.700;7.184;2024-02-26T09:26:48;3.07;;;2.87;;
7398;SDS011;3740;50.700;7.184;2024-02-26T09:29:14;3.53;;;3.23;;
7398;SDS011;3740;50.700;7.184;2024-02-26T09:31:39;4.00;;;3.60;;
7398;SDS011;3740;50.700;7.184;2024-02-26T09:34:06;3.97;;;3.67;;
7398;SDS011;3740;50.700;7.184;2024-02-26T09:36:32;4.27;;;3.90;;
7398;SDS011;3740;50.700;7.184;2024-02-26T09:39:01;3.60;;;3.30;;
7398;SDS011;3740;50.700;7.184;2024-02-26T09:41:28;4.50;;;3.57;;
7398;SDS011;3740;50.700;7.184;2024-02-26T09:43:57;4.00;;;3.70;;
7398;SDS011;3740;50.700;7.184;2024-02-26T09:46:25;4.00;;;3.33;;
7398;SDS011;3740;50.700;7.184;2024-02-26T09:48:51;4.00;;;3.40;;
7398;SDS011;3740;50.700;7.184;2024-02-26T09:51:17;6.20;;;3.60;;
7398;SDS011;3740;50.700;7.184;2024-02-26T09:53:44;3.87;;;3.57;;
7398;SDS011;3740;50.700;7.184;2024-02-26T09:56:11;3.90;;;3.60;;
7398;SDS011;3740;50.700;7.184;2024-02-26T09:58:40;5.70;;;3.90;;
7398;SDS011;3740;50.700;7.184;2024-02-26T10:01:09;4.60;;;4.20;;
7398;SDS011;3740;50.700;7.184;2024-02-26T10:03:42;4.70;;;4.20;;
7398;SDS011;3740;50.700;7.184;2024-02-26T10:06:10;5.77;;;4.40;;
7398;SDS011;3740;50.700;7.184;2024-02-26T10:08:36;5.17;;;3.90;;
7398;SDS011;3740;50.700;7.184;2024-02-26T10:11:02;4.30;;;3.90;;
7398;SDS011;3740;50.700;7.184;2024-02-26T10:13:29;3.90;;;3.50;;
7398;SDS011;3740;50.700;7.184;2024-02-26T10:15:55;4.13;;;3.60;;
7398;SDS011;3740;50.700;7.184;2024-02-26T10:18:22;4.70;;;3.70;;
7398;SDS011;3740;50.700;7.184;2024-02-26T10:21:01;3.70;;;3.40;;
7398;SDS011;3740;50.700;7.184;2024-02-26T10:23:27;3.40;;;3.17;;
7398;SDS011;3740;50.700;7.184;2024-02-26T10:25:56;3.00;;;2.80;;
7398;SDS011;3740;50.700;7.184;2024-02-26T10:28:22;3.60;;;3.30;;
7398;SDS011;3740;50.700;7.184;2024-02-26T10:30:47;4.40;;;4.00;;
7398;SDS011;3740;50.700;7.184;2024-02-26T10:33:13;3.70;;;3.40;;
7398;SDS011;3740;50.700;7.184;2024-02-26T10:35:39;3.17;;;2.97;;
7398;SDS011;3740;50.700;7.184;2024-02-26T10:38:06;3.80;;;3.47;;
7398;SDS011;3740;50.700;7.184;2024-02-26T10:40:32;4.00;;;3.67;;
7398;SDS011;3740;50.700;7.184;2024-02-26T10:42:58;3.60;;;3.30;;
7398;SDS011;3740;50.700;7.184;2024-02-26T10:45:23;3.40;;;3.00;;
7398;SDS011;3740;50.700;7.184;2024-02-26T10:47:49;3.00;;;2.80;;
7398;SDS011;3740;50.700;7.184;2024-02-26T10:50:15;3.67;;;3.37;;
7398;SDS011;3740;50.700;7.184;2024-02-26T10:52:42;4.17;;;3.60;;
7398;SDS011;3740;50.700;7.184;2024-02-26T10:55:08;3.63;;;3.03;;
7398;SDS011;3740;50.700;7.184;2024-02-26T10:57:40;3.20;;;3.00;;
7398;SDS011;3740;50.700;7.184;2024-02-26T11:00:10;3.50;;;3.20;;
7398;SDS011;3740;50.700;7.184;2024-02-26T11:02:39;3.70;;;3.40;;
7398;SDS011;3740;50.700;7.184;2024-02-26T11:05:06;3.30;;;3.00;;
7398;SDS011;3740;50.700;7.184;2024-02-26T11:07:33;3.40;;;3.20;;
7398;SDS011;3740;50.700;7.184;2024-02-26T11:10:02;3.37;;;3.00;;
7398;SDS011;3740;50.700;7.184;2024-02-26T11:12:29;3.10;;;2.90;;
7398;SDS011;3740;50.700;7.184;2024-02-26T11:14:57;3.17;;;2.97;;
7398;SDS011;3740;50.700;7.184;2024-02-26T11:17:27;3.50;;;3.20;;
7398;SDS011;3740;50.700;7.184;2024-02-26T11:19:57;3.40;;;3.10;;
7398;SDS011;3740;50.700;7.184;2024-02-26T11:22:24;3.93;;;3.63;;
7398;SDS011;3740;50.700;7.184;2024-02-26T11:24:54;3.40;;;3.10;;
7398;SDS011;3740;50.700;7.184;2024-02-26T11:27:23;3.93;;;3.40;;
7398;SDS011;3740;50.700;7.184;2024-02-26T11:29:54;4.30;;;3.90;;
7398;SDS011;3740;50.700;7.184;2024-02-26T11:32:22;4.00;;;3.60;;
7398;SDS011;3740;50.700;7.184;2024-02-26T11:34:48;3.63;;;3.33;;
7398;SDS011;3740;50.700;7.184;2024-02-26T11:37:15;4.03;;;3.33;;
7398;SDS011;3740;50.700;7.184;2024-02-26T11:39:42;3.77;;;3.40;;
7398;SDS011;3740;50.700;7.184;2024-02-26T11:42:09;3.80;;;3.50;;
7398;SDS011;3740;50.700;7.184;2024-02-26T11:44:38;3.53;;;3.23;;
7398;SDS011;3740;50.700;7.184;2024-02-26T11:47:14;3.70;;;3.40;;
7398;SDS011;3740;50.700;7.184;2024-02-26T11:49:47;4.00;;;3.70;;
7398;SDS011;3740;50.700;7.184;2024-02-26T11:52:14;4.60;;;4.20;;
7398;SDS011;3740;50.700;7.184;2024-02-26T11:57:30;4.20;;;3.80;;
7398;SDS011;3740;50.700;7.184;2024-02-26T12:05:12;4.40;;;4.00;;
7398;SDS011;3740;50.700;7.184;2024-02-26T12:07:47;4.57;;;3.80;;
7398;SDS011;3740;50.700;7.184;2024-02-26T12:10:15;4.67;;;4.20;;
7398;SDS011;3740;50.700;7.184;2024-02-26T12:12:52;4.60;;;4.20;;
7398;SDS011;3740;50.700;7.184;2024-02-26T12:15:19;4.27;;;3.87;;
7398;SDS011;3740;50.700;7.184;2024-02-26T12:17:48;4.17;;;3.83;;
7398;SDS011;3740;50.700;7.184;2024-02-26T12:20:14;4.00;;;3.60;;
7398;SDS011;3740;50.700;7.184;2024-02-26T12:22:44;4.27;;;3.97;;
7398;SDS011;3740;50.700;7.184;2024-02-26T12:25:11;4.33;;;3.97;;
7398;SDS011;3740;50.700;7.184;2024-02-26T12:27:38;3.90;;;3.60;;
7398;SDS011;3740;50.700;7.184;2024-02-26T12:30:03;5.13;;;4.03;;
7398;SDS011;3740;50.700;7.184;2024-02-26T12:32:32;4.60;;;3.57;;
7398;SDS011;3740;50.700;7.184;2024-02-26T12:34:58;4.17;;;3.77;;
7398;SDS011;3740;50.700;7.184;2024-02-26T12:37:25;5.30;;;3.67;;
7398;SDS011;3740;50.700;7.184;2024-02-26T12:39:52;4.43;;;4.03;;
7398;SDS011;3740;50.700;7.184;2024-02-26T12:42:18;4.20;;;3.80;;
7398;SDS011;3740;50.700;7.184;2024-02-26T12:44:45;5.03;;;4.33;;
7398;SDS011;3740;50.700;7.184;2024-02-26T12:47:11;4.40;;;4.00;;
7398;SDS011;3740;50.700;7.184;2024-02-26T12:49:42;4.20;;;3.80;;
7398;SDS011;3740;50.700;7.184;2024-02-26T12:52:08;4.07;;;3.70;;
7398;SDS011;3740;50.700;7.184;2024-02-26T12:54:34;4.27;;;3.87;;
7398;SDS011;3740;50.700;7.184;2024-02-26T12:57:00;4.30;;;3.90;;
7398;SDS011;3740;50.700;7.184;2024-02-26T12:59:28;4.57;;;4.13;;
7398;SDS011;3740;50.700;7.184;2024-02-26T13:01:55;4.27;;;3.97;;
7398;SDS011;3740;50.700;7.184;2024-02-26T13:04:20;4.10;;;3.70;;
7398;SDS011;3740;50.700;7.184;2024-02-26T13:06:46;5.13;;;3.90;;
7398;SDS011;3740;50.700;7.184;2024-02-26T13:09:14;4.03;;;3.70;;
7398;SDS011;3740;50.700;7.184;2024-02-26T13:11:42;4.30;;;3.90;;
7398;SDS011;3740;50.700;7.184;2024-02-26T13:14:18;4.30;;;3.90;;
7398;SDS011;3740;50.700;7.184;2024-02-26T13:16:45;4.57;;;4.10;;
7398;SDS011;3740;50.700;7.184;2024-02-26T13:19:19;3.97;;;3.60;;
7398;SDS011;3740;50.700;7.184;2024-02-26T13:21:44;4.47;;;4.10;;
7398;SDS011;3740;50.700;7.184;2024-02-26T13:24:12;5.97;;;4.40;;
7398;SDS011;3740;50.700;7.184;2024-02-26T13:26:38;4.17;;;3.77;;
7398;SDS011;3740;50.700;7.184;2024-02-26T13:29:04;4.07;;;3.57;;
7398;SDS011;3740;50.700;7.184;2024-02-26T13:31:30;4.30;;;3.67;;
7398;SDS011;3740;50.700;7.184;2024-02-26T13:33:56;3.90;;;3.60;;
7398;SDS011;3740;50.700;7.184;2024-02-26T13:36:22;4.47;;;4.07;;
7398;SDS011;3740;50.700;7.184;2024-02-26T13:38:54;4.93;;;4.23;;
7398;SDS011;3740;50.700;7.184;2024-02-26T13:41:20;4.10;;;3.70;;
7398;SDS011;3740;50.700;7.184;2024-02-26T13:43:47;4.57;;;4.00;;
7398;SDS011;3740;50.700;7.184;2024-02-26T13:46:12;4.93;;;4.10;;
7398;SDS011;3740;50.700;7.184;2024-02-26T13:48:40;4.07;;;3.67;;
7398;SDS011;3740;50.700;7.184;2024-02-26T13:51:06;4.23;;;3.57;;
7398;SDS011;3740;50.700;7.184;2024-02-26T13:53:31;4.23;;;3.90;;
7398;SDS011;3740;50.700;7.184;2024-02-26T13:55:57;4.20;;;3.80;;
7398;SDS011;3740;50.700;7.184;2024-02-26T13:58:25;4.23;;;3.83;;
7398;SDS011;3740;50.700;7.184;2024-02-26T14:00:52;4.23;;;3.83;;
7398;SDS011;3740;50.700;7.184;2024-02-26T14:03:18;4.30;;;3.93;;
7398;SDS011;3740;50.700;7.184;2024-02-26T14:05:47;4.63;;;4.23;;
7398;SDS011;3740;50.700;7.184;2024-02-26T14:08:13;4.47;;;4.07;;
7398;SDS011;3740;50.700;7.184;2024-02-26T14:10:39;4.17;;;3.43;;
7398;SDS011;3740;50.700;7.184;2024-02-26T14:13:05;4.97;;;4.00;;
7398;SDS011;3740;50.700;7.184;2024-02-26T14:15:30;4.50;;;4.10;;
7398;SDS011;3740;50.700;7.184;2024-02-26T14:17:56;4.40;;;4.00;;
7398;SDS011;3740;50.700;7.184;2024-02-26T14:20:22;4.77;;;3.60;;
7398;SDS011;3740;50.700;7.184;2024-02-26T14:22:49;3.67;;;3.37;;
7398;SDS011;3740;50.700;7.184;2024-02-26T14:25:17;4.60;;;4.20;;
7398;SDS011;3740;50.700;7.184;2024-02-26T14:27:42;4.40;;;3.77;;
7398;SDS011;3740;50.700;7.184;2024-02-26T14:30:08;4.20;;;3.90;;
7398;SDS011;3740;50.700;7.184;2024-02-26T14:32:34;4.27;;;3.87;;
7398;SDS011;3740;50.700;7.184;2024-02-26T14:35:01;3.97;;;3.67;;
7398;SDS011;3740;50.700;7.184;2024-02-26T14:37:28;4.27;;;3.70;;
7398;SDS011;3740;50.700;7.184;2024-02-26T14:39:53;4.10;;;3.70;;
7398;SDS011;3740;50.700;7.184;2024-02-26T14:42:19;4.83;;;4.33;;
7398;SDS011;3740;50.700;7.184;2024-02-26T14:44:44;3.90;;;3.60;;
7398;SDS011;3740;50.700;7.184;2024-02-26T14:47:12;4.10;;;3.80;;
7398;SDS011;3740;50.700;7.184;2024-02-26T14:49:38;4.00;;;3.60;;
7398;SDS011;3740;50.700;7.184;2024-02-26T14:52:04;4.40;;;3.70;;
7398;SDS011;3740;50.700;7.184;2024-02-26T14:54:29;4.30;;;3.90;;
7398;SDS011;3740;50.700;7.184;2024-02-26T14:57:02;5.30;;;3.73;;
7398;SDS011;3740;50.700;7.184;2024-02-26T14:59:29;4.00;;;3.70;;
7398;SDS011;3740;50.700;7.184;2024-02-26T15:01:56;5.60;;;4.20;;
7398;SDS011;3740;50.700;7.184;2024-02-26T15:04:22;4.37;;;3.97;;
7398;SDS011;3740;50.700;7.184;2024-02-26T15:06:47;4.70;;;4.20;;
7398;SDS011;3740;50.700;7.184;2024-02-26T15:09:13;4.10;;;3.80;;
7398;SDS011;3740;50.700;7.184;2024-02-26T15:11:39;4.70;;;4.30;;
7398;SDS011;3740;50.700;7.184;2024-02-26T15:14:06;4.50;;;4.13;;
7398;SDS011;3740;50.700;7.184;2024-02-26T15:16:32;5.17;;;3.63;;
7398;SDS011;3740;50.700;7.184;2024-02-26T15:18:58;4.37;;;3.97;;